Time;durP1;ratioP1;P1;durP2;ratioP2;P2;SDS_P1;SDS_P2;PMS_P1;PMS_P2;Temp;Humidity;BMP_temperature;BMP_pressure;BME280_temperature;BME280_humidity;BME280_pressure;Samples;Min_cycle;Max_cycle;Signal;HPM_P1;HPM_P2
2022/12/30 00:01:18;;;;;;;0.20;0.20;;;9.30;99.90;9.20;100018.00;;;;4928642;28;88625;-67
2022/12/30 00:03:45;;;;;;;0.27;0.27;;;9.30;99.90;9.20;100009.00;;;;4901884;28;91751;-67
2022/12/30 00:06:16;;;;;;;3.03;1.30;;;9.30;99.90;9.30;100000.00;;;;4909504;28;87871;-69
2022/12/30 00:08:46;;;;;;;2.50;0.40;;;9.30;99.90;9.30;99996.00;;;;4895968;28;87896;-68
2022/12/30 00:11:14;;;;;;;0.10;0.10;;;9.30;99.90;9.30;100008.00;;;;4892203;28;87961;-70
2022/12/30 00:34:16;;;;;;;0.43;0.30;;;9.80;99.90;9.40;100039.00;;;;4908458;28;87946;-69
2022/12/30 00:36:42;;;;;;;0.40;0.30;;;9.40;99.90;9.40;100033.00;;;;4909416;28;88805;-68
2022/12/30 00:39:08;;;;;;;0.23;0.23;;;9.40;99.90;9.40;100047.00;;;;4894537;28;87148;-68
2022/12/30 00:44:18;;;;;;;0.33;0.30;;;9.50;99.90;9.40;100047.00;;;;4911295;28;89290;-67
2022/12/30 00:46:44;;;;;;;0.33;0.30;;;9.40;99.90;9.40;100045.00;;;;4908672;28;103531;-70
2022/12/30 00:57:23;;;;;;;0.37;0.17;;;9.50;99.90;9.40;100054.00;;;;4913513;28;87602;-67
2022/12/30 00:59:49;;;;;;;4.23;0.80;;;9.50;99.90;9.40;100056.00;;;;4905492;28;109649;-67
2022/12/30 01:02:14;;;;;;;0.50;0.27;;;9.40;99.90;9.30;100063.00;;;;4905906;28;109328;-66
2022/12/30 01:04:40;;;;;;;0.30;0.30;;;9.40;99.90;9.30;100066.00;;;;4908575;28;90670;-69
2022/12/30 01:07:06;;;;;;;0.43;0.40;;;9.50;99.90;9.30;100089.00;;;;4905263;28;116351;-68
2022/12/30 01:09:35;;;;;;;2.37;0.70;;;9.40;99.90;9.30;100083.00;;;;4907227;28;110566;-69
2022/12/30 01:12:10;;;;;;;0.50;0.50;;;9.40;99.90;9.30;100095.00;;;;4907149;28;88927;-68
2022/12/30 01:14:44;;;;;;;1.50;0.40;;;9.40;99.90;9.30;100083.00;;;;4909734;28;88155;-68
2022/12/30 01:17:14;;;;;;;0.60;0.40;;;9.40;99.90;9.20;100085.00;;;;4907921;28;108393;-70
2022/12/30 01:19:40;;;;;;;0.30;0.20;;;9.40;99.90;9.20;100086.00;;;;4894195;28;87950;-67
2022/12/30 01:22:07;;;;;;;0.63;0.30;;;9.30;99.90;9.20;100095.00;;;;4908446;28;88017;-67
2022/12/30 01:24:32;;;;;;;0.30;0.30;;;9.30;99.90;9.20;100088.00;;;;4910609;28;88452;-69
2022/12/30 01:26:58;;;;;;;1.80;0.57;;;9.30;99.90;9.20;100095.00;;;;4907968;28;88086;-69
2022/12/30 01:29:34;;;;;;;0.40;0.40;;;9.30;99.90;9.20;100097.00;;;;4909480;28;107352;-67
2022/12/30 01:32:00;;;;;;;4.53;0.60;;;9.30;99.90;9.20;100109.00;;;;4895168;28;88190;-67
2022/12/30 01:34:26;;;;;;;0.53;0.40;;;9.30;99.90;9.20;100105.00;;;;4886460;28;88306;-67
2022/12/30 01:36:53;;;;;;;0.97;0.50;;;9.30;99.90;9.20;100111.00;;;;4906731;28;89238;-66
2022/12/30 01:39:19;;;;;;;0.33;0.33;;;9.30;99.90;9.20;100114.00;;;;4907124;28;105807;-68
2022/12/30 01:41:46;;;;;;;1.73;0.50;;;9.20;99.90;9.20;100122.00;;;;4912852;28;87923;-68
2022/12/30 01:44:49;;;;;;;3.43;0.40;;;9.30;99.90;9.10;100136.00;;;;4906962;28;88683;-69
2022/12/30 01:47:40;;;;;;;0.93;0.40;;;9.30;99.90;9.10;100144.00;;;;4906102;28;87803;-70
2022/12/30 01:50:17;;;;;;;2.80;0.50;;;9.20;99.90;9.10;100134.00;;;;4908999;28;97933;-66
2022/12/30 01:52:49;;;;;;;3.50;0.53;;;9.20;99.90;9.20;100134.00;;;;4894438;28;87949;-69
2022/12/30 01:55:31;;;;;;;0.67;0.40;;;9.30;99.90;9.10;100138.00;;;;4909657;28;92386;-68
2022/12/30 01:57:58;;;;;;;1.00;0.60;;;9.20;99.90;9.10;100137.00;;;;4906821;28;87776;-68
2022/12/30 02:00:24;;;;;;;0.83;0.40;;;9.20;99.90;9.10;100142.00;;;;4884541;28;88774;-69
2022/12/30 02:02:51;;;;;;;3.30;0.50;;;9.20;99.90;9.20;100147.00;;;;4907335;28;88997;-68
2022/12/30 02:05:20;;;;;;;3.40;0.60;;;9.20;99.90;9.10;100153.00;;;;4907469;28;118139;-66
2022/12/30 02:07:55;;;;;;;0.83;0.47;;;9.20;99.90;9.10;100144.00;;;;4884598;28;100634;-69
2022/12/30 02:10:21;;;;;;;5.43;0.80;;;9.20;99.90;9.10;100138.00;;;;4892396;28;93751;-69
2022/12/30 02:12:47;;;;;;;2.53;0.83;;;9.20;99.90;9.10;100134.00;;;;4901740;28;108167;-68
2022/12/30 02:15:14;;;;;;;0.60;0.43;;;9.20;99.90;9.10;100140.00;;;;4906477;28;88141;-70
2022/12/30 02:17:48;;;;;;;0.63;0.50;;;9.20;99.90;9.10;100147.00;;;;4909200;28;88113;-67
2022/12/30 02:20:59;;;;;;;1.40;0.20;;;9.20;99.90;9.10;100153.00;;;;4909373;28;87209;-67
2022/12/30 02:23:36;;;;;;;2.67;0.43;;;9.20;99.90;9.00;100167.00;;;;4881593;28;102575;-69
2022/12/30 02:26:43;;;;;;;0.30;0.27;;;9.20;99.90;9.00;100169.00;;;;4910514;28;90310;-66
2022/12/30 02:29:46;;;;;;;0.67;0.67;;;9.20;99.90;9.00;100181.00;;;;4908391;28;88744;-68
2022/12/30 02:32:48;;;;;;;0.77;0.60;;;9.10;99.90;9.00;100173.00;;;;4906265;28;87809;-68
2022/12/30 02:35:44;;;;;;;3.90;1.00;;;9.10;99.90;9.00;100178.00;;;;4908308;28;97791;-67
2022/12/30 02:38:39;;;;;;;1.80;0.67;;;9.10;99.90;8.90;100183.00;;;;4892564;28;88604;-69
2022/12/30 02:47:10;;;;;;;0.43;0.43;;;9.00;99.90;8.90;100194.00;;;;4892601;28;88085;-69
2022/12/30 02:49:38;;;;;;;0.93;0.40;;;9.00;99.90;8.80;100185.00;;;;4895600;28;87086;-69
2022/12/30 02:52:14;;;;;;;0.53;0.33;;;9.70;99.90;8.80;100191.00;;;;4909765;28;98477;-68
2022/12/30 02:54:45;;;;;;;1.73;0.50;;;8.90;99.90;8.80;100203.00;;;;4883182;28;87941;-68
2022/12/30 02:57:33;;;;;;;0.83;0.40;;;8.90;99.90;8.70;100213.00;;;;4884852;28;88611;-66
2022/12/30 03:04:06;;;;;;;0.57;0.47;;;8.80;99.90;8.60;100228.00;;;;4886260;28;87832;-68
2022/12/30 03:07:27;;;;;;;0.83;0.50;;;8.70;99.90;8.50;100230.00;;;;4878494;28;87783;-66
2022/12/30 03:13:25;;;;;;;0.33;0.33;;;8.60;99.90;8.50;100235.00;;;;4885666;28;89261;-66
2022/12/30 03:16:10;;;;;;;1.17;0.70;;;8.70;99.90;8.40;100240.00;;;;4891844;28;99092;-68
2022/12/30 03:18:38;;;;;;;1.67;0.80;;;8.60;99.90;8.50;100236.00;;;;4893317;28;87384;-67
2022/12/30 03:21:05;;;;;;;1.70;0.23;;;8.90;99.90;8.40;100236.00;;;;4892289;28;87772;-69
2022/12/30 03:29:11;;;;;;;0.73;0.43;;;8.50;99.90;8.30;100243.00;;;;4891990;28;87813;-67
2022/12/30 03:31:37;;;;;;;0.67;0.40;;;8.40;99.90;8.30;100248.00;;;;4907174;28;87870;-67
2022/12/30 03:34:02;;;;;;;1.30;0.70;;;8.40;99.90;8.30;100255.00;;;;4887489;28;118041;-69
2022/12/30 03:36:41;;;;;;;0.90;0.60;;;8.40;99.90;8.20;100264.00;;;;4891941;28;117064;-68
2022/12/30 03:39:24;;;;;;;2.57;0.93;;;8.40;99.90;8.10;100259.00;;;;4881390;28;87833;-67
2022/12/30 03:41:51;;;;;;;0.57;0.47;;;8.30;99.90;8.10;100261.00;;;;4891263;28;87798;-66
2022/12/30 03:44:19;;;;;;;0.63;0.53;;;8.30;99.90;8.10;100267.00;;;;4888683;28;89168;-69
2022/12/30 03:46:47;;;;;;;0.73;0.60;;;8.20;99.90;8.10;100269.00;;;;4891239;28;88242;-66
2022/12/30 03:49:14;;;;;;;1.50;0.67;;;8.40;99.90;8.10;100261.00;;;;4887031;28;87851;-67
2022/12/30 03:51:40;;;;;;;2.83;0.87;;;8.20;99.90;8.10;100267.00;;;;4890392;28;88759;-67
2022/12/30 03:54:06;;;;;;;0.30;0.30;;;8.20;99.90;8.00;100267.00;;;;4890848;28;88097;-69
2022/12/30 03:56:31;;;;;;;2.13;0.60;;;8.10;99.90;8.00;100261.00;;;;4891147;28;117807;-67
2022/12/30 03:58:57;;;;;;;0.20;0.20;;;8.10;99.90;7.90;100266.00;;;;4886778;28;111430;-69
2022/12/30 04:01:23;;;;;;;1.07;0.63;;;8.10;99.90;7.80;100260.00;;;;4888534;28;108117;-67
2022/12/30 04:03:48;;;;;;;1.43;0.87;;;8.00;99.90;7.80;100270.00;;;;4886679;28;118187;-69
2022/12/30 04:06:14;;;;;;;0.63;0.60;;;7.90;99.90;7.80;100275.00;;;;4890942;28;88160;-67
2022/12/30 04:08:40;;;;;;;1.83;0.80;;;8.00;99.90;7.80;100267.00;;;;4895449;28;87083;-67
2022/12/30 04:11:06;;;;;;;1.07;0.60;;;7.90;99.90;7.80;100267.00;;;;4889743;28;108781;-67
2022/12/30 04:13:31;;;;;;;3.07;1.07;;;7.90;99.90;7.70;100279.00;;;;4889491;28;115721;-68
2022/12/30 04:15:57;;;;;;;0.87;0.67;;;7.90;99.90;7.70;100274.00;;;;4888803;28;116775;-68
2022/12/30 04:18:23;;;;;;;7.40;0.60;;;7.90;99.90;7.70;100276.00;;;;4890208;28;111196;-70
2022/12/30 04:20:50;;;;;;;1.33;0.60;;;7.80;99.90;7.70;100275.00;;;;4891583;28;87821;-69
2022/12/30 04:23:16;;;;;;;1.93;0.90;;;7.80;99.90;7.60;100288.00;;;;4890506;28;88877;-68
2022/12/30 04:25:42;;;;;;;4.37;1.27;;;7.70;99.90;7.60;100277.00;;;;4886883;28;97800;-69
2022/12/30 04:28:07;;;;;;;1.37;0.60;;;7.70;99.90;7.60;100285.00;;;;4891883;28;101512;-68
2022/12/30 04:30:33;;;;;;;2.83;0.70;;;7.70;99.90;7.50;100279.00;;;;4889800;28;109462;-67
2022/12/30 04:32:59;;;;;;;0.40;0.33;;;7.60;99.90;7.50;100286.00;;;;4892188;28;103229;-68
2022/12/30 04:35:25;;;;;;;2.10;0.60;;;7.60;99.90;7.40;100293.00;;;;4888019;28;104922;-69
2022/12/30 04:37:50;;;;;;;1.90;0.77;;;7.60;99.90;7.40;100298.00;;;;4890982;28;110417;-67
2022/12/30 04:40:17;;;;;;;3.33;0.83;;;7.50;99.90;7.40;100300.00;;;;4891056;28;100095;-67
2022/12/30 04:42:43;;;;;;;0.30;0.23;;;7.50;99.90;7.30;100296.00;;;;4904724;28;96530;-69
2022/12/30 04:45:11;;;;;;;2.03;1.07;;;7.50;99.90;7.30;100304.00;;;;4930681;28;88032;-68
2022/12/30 04:47:37;;;;;;;1.53;0.63;;;7.40;99.90;7.30;100307.00;;;;4920848;28;103793;-67
2022/12/30 04:50:04;;;;;;;1.67;0.60;;;7.60;99.90;7.20;100313.00;;;;4905063;28;108986;-69
2022/12/30 04:52:29;;;;;;;0.60;0.30;;;7.40;99.90;7.20;100307.00;;;;4908495;28;105310;-67
2022/12/30 04:54:55;;;;;;;4.07;0.57;;;8.20;99.90;7.20;100301.00;;;;4913046;28;117665;-67
2022/12/30 04:57:21;;;;;;;1.70;0.40;;;7.90;99.90;7.20;100311.00;;;;4910430;28;109904;-68
2022/12/30 04:59:47;;;;;;;2.77;0.83;;;7.30;99.90;7.10;100309.00;;;;4909234;28;87826;-67
2022/12/30 05:02:12;;;;;;;0.97;0.50;;;7.40;99.90;7.10;100316.00;;;;4906172;28;119862;-68
2022/12/30 05:04:38;;;;;;;2.07;0.70;;;7.30;99.90;7.10;100334.00;;;;4907050;28;116509;-69
2022/12/30 05:07:04;;;;;;;1.80;0.73;;;7.20;99.90;7.10;100342.00;;;;4909718;28;96612;-69
2022/12/30 05:09:30;;;;;;;0.73;0.70;;;7.20;99.90;7.00;100343.00;;;;4911146;28;104832;-68
2022/12/30 05:11:56;;;;;;;0.40;0.40;;;7.20;99.90;7.00;100335.00;;;;4909569;28;87937;-67
2022/12/30 05:14:22;;;;;;;2.30;0.50;;;7.10;99.90;6.90;100344.00;;;;4893006;28;105208;-67
2022/12/30 05:16:47;;;;;;;1.67;1.03;;;7.10;99.90;6.90;100341.00;;;;4908540;28;98257;-69
2022/12/30 05:19:13;;;;;;;0.63;0.37;;;7.00;99.90;6.90;100341.00;;;;4907787;28;108654;-68
2022/12/30 05:21:39;;;;;;;0.57;0.57;;;7.00;99.90;6.80;100349.00;;;;4909113;28;117638;-69
2022/12/30 05:26:49;;;;;;;3.73;0.87;;;6.90;99.90;6.80;100351.00;;;;4906399;28;87870;-68
2022/12/30 05:29:15;;;;;;;0.20;0.20;;;7.70;99.90;6.80;100354.00;;;;4909706;28;108569;-66
2022/12/30 05:31:42;;;;;;;1.03;0.50;;;7.30;99.90;6.70;100349.00;;;;4910181;28;117833;-67
2022/12/30 05:34:08;;;;;;;0.67;0.40;;;7.90;99.90;6.70;100349.00;;;;4909136;28;88875;-68
2022/12/30 05:36:34;;;;;;;3.03;0.70;;;6.90;99.90;6.70;100360.00;;;;4911762;28;87607;-68
2022/12/30 05:39:00;;;;;;;3.50;0.50;;;6.90;99.90;6.70;100349.00;;;;4907156;28;89509;-68
2022/12/30 05:41:25;;;;;;;7.23;1.27;;;6.90;99.90;6.70;100357.00;;;;4908378;28;116885;-66
2022/12/30 05:43:51;;;;;;;1.00;0.73;;;7.10;99.90;6.70;100367.00;;;;4909747;28;116087;-68
2022/12/30 05:46:17;;;;;;;0.73;0.60;;;6.80;99.90;6.60;100363.00;;;;4907173;28;110569;-68
2022/12/30 05:48:42;;;;;;;0.63;0.57;;;6.80;99.90;6.60;100357.00;;;;4887411;28;87739;-67
2022/12/30 05:51:08;;;;;;;1.57;1.03;;;6.70;99.90;6.60;100365.00;;;;4904555;28;116513;-68
2022/12/30 05:53:34;;;;;;;0.53;0.47;;;6.80;99.90;6.60;100366.00;;;;4902582;28;117688;-69
2022/12/30 05:56:00;;;;;;;0.83;0.50;;;6.80;99.90;6.60;100376.00;;;;4909567;28;103105;-67
2022/12/30 05:58:26;;;;;;;3.20;1.17;;;7.30;99.90;6.70;100373.00;;;;4909454;28;109139;-67
2022/12/30 06:00:52;;;;;;;4.43;0.37;;;7.50;99.90;6.70;100380.00;;;;4910144;28;88256;-68
2022/12/30 06:03:17;;;;;;;11.20;0.73;;;6.70;99.90;6.70;100387.00;;;;4908874;28;117087;-69
2022/12/30 06:05:43;;;;;;;1.17;0.67;;;6.80;99.90;6.70;100388.00;;;;4905866;28;110962;-68
2022/12/30 06:08:10;;;;;;;2.23;0.73;;;6.90;99.90;6.70;100400.00;;;;4906988;28;108804;-69
2022/12/30 06:10:36;;;;;;;3.17;1.20;;;6.40;99.90;6.70;100404.00;;;;4893636;28;87633;-67
2022/12/30 06:13:02;;;;;;;0.67;0.60;;;6.80;99.90;6.70;100404.00;;;;4908384;28;90219;-67
2022/12/30 06:15:27;;;;;;;1.80;1.10;;;6.90;99.90;6.70;100404.00;;;;4908039;28;87764;-68
2022/12/30 06:17:53;;;;;;;4.63;0.30;;;7.40;99.90;6.70;100397.00;;;;4909825;28;109277;-67
2022/12/30 06:20:19;;;;;;;0.97;0.87;;;6.90;99.90;6.70;100408.00;;;;4910484;28;95785;-68
2022/12/30 06:22:44;;;;;;;1.40;0.50;;;6.90;99.90;6.70;100416.00;;;;4906258;28;102161;-68
2022/12/30 06:25:10;;;;;;;1.63;0.90;;;7.40;99.90;6.70;100414.00;;;;4908245;28;87970;-69
2022/12/30 06:27:37;;;;;;;1.23;0.70;;;6.80;99.90;6.70;100411.00;;;;4891570;28;88067;-67
2022/12/30 06:30:04;;;;;;;5.67;1.13;;;6.80;99.90;6.70;100413.00;;;;4910113;28;88080;-69
2022/12/30 06:32:31;;;;;;;3.30;0.90;;;6.80;99.90;6.70;100420.00;;;;4907864;28;89169;-67
2022/12/30 06:34:57;;;;;;;0.60;0.53;;;6.80;99.90;6.70;100415.00;;;;4907961;28;88394;-67
2022/12/30 06:37:22;;;;;;;0.80;0.63;;;6.80;99.90;6.70;100433.00;;;;4906309;28;92594;-67
2022/12/30 06:39:48;;;;;;;2.27;0.73;;;6.80;99.90;6.70;100425.00;;;;4909234;28;118171;-67
2022/12/30 06:42:13;;;;;;;0.73;0.37;;;6.70;99.90;6.60;100445.00;;;;4905477;28;89093;-69
2022/12/30 06:44:39;;;;;;;2.00;0.80;;;7.60;99.90;6.60;100447.00;;;;4905365;28;108961;-67
2022/12/30 06:47:05;;;;;;;3.47;0.97;;;6.80;99.90;6.60;100441.00;;;;4906599;28;108389;-69
2022/12/30 06:49:30;;;;;;;5.47;1.00;;;6.70;99.90;6.50;100433.00;;;;4905746;28;118156;-67
2022/12/30 06:51:56;;;;;;;0.93;0.30;;;6.70;99.90;6.50;100451.00;;;;4908886;28;118579;-67
2022/12/30 06:54:22;;;;;;;2.40;0.70;;;6.70;99.90;6.50;100449.00;;;;4907285;28;109092;-68
2022/12/30 06:56:47;;;;;;;0.43;0.33;;;6.60;99.90;6.50;100442.00;;;;4905372;28;95518;-68
2022/12/30 06:59:13;;;;;;;2.17;0.70;;;6.60;99.90;6.40;100459.00;;;;4910317;28;116555;-68
2022/12/30 07:01:39;;;;;;;4.03;0.80;;;6.60;99.90;6.40;100470.00;;;;4906915;28;116640;-69
2022/12/30 07:04:04;;;;;;;1.80;0.70;;;6.50;99.90;6.40;100464.00;;;;4906591;28;103218;-67
2022/12/30 07:06:30;;;;;;;0.73;0.67;;;6.60;99.90;6.40;100464.00;;;;4907932;28;91604;-67
2022/12/30 07:08:57;;;;;;;2.10;0.50;;;6.60;99.90;6.40;100479.00;;;;4906072;28;89384;-68
2022/12/30 07:11:22;;;;;;;1.33;0.53;;;6.50;99.90;6.30;100483.00;;;;4908302;28;117924;-69
2022/12/30 07:13:48;;;;;;;0.73;0.70;;;6.50;99.90;6.30;100481.00;;;;4907004;28;110052;-67
2022/12/30 07:16:14;;;;;;;3.03;0.70;;;6.00;99.90;6.30;100488.00;;;;4906378;28;87859;-68
2022/12/30 07:18:39;;;;;;;0.80;0.70;;;6.40;99.90;6.30;100488.00;;;;4909480;28;118653;-66
2022/12/30 07:21:05;;;;;;;1.10;0.73;;;6.50;99.90;6.30;100491.00;;;;4907648;28;117665;-67
2022/12/30 07:23:31;;;;;;;0.87;0.70;;;6.50;99.90;6.40;100489.00;;;;4907839;28;110578;-67
2022/12/30 07:25:56;;;;;;;1.10;0.40;;;6.50;99.90;6.40;100497.00;;;;4908462;28;89198;-68
2022/12/30 07:28:22;;;;;;;1.10;0.60;;;6.50;99.90;6.40;100495.00;;;;4903949;28;116249;-68
2022/12/30 07:30:48;;;;;;;0.47;0.47;;;6.50;99.90;6.50;100494.00;;;;4905614;28;117033;-68
2022/12/30 07:33:13;;;;;;;0.40;0.40;;;6.50;99.90;6.50;100492.00;;;;4892652;28;90086;-66
2022/12/30 07:35:39;;;;;;;7.13;1.03;;;6.60;99.90;6.60;100499.00;;;;4904278;28;89190;-70
2022/12/30 07:38:05;;;;;;;2.70;1.23;;;6.70;99.90;6.60;100498.00;;;;4893031;28;89030;-68
2022/12/30 07:40:31;;;;;;;0.63;0.50;;;6.70;99.90;6.60;100510.00;;;;4904653;28;116265;-67
2022/12/30 07:42:56;;;;;;;1.10;0.90;;;6.70;99.90;6.50;100512.00;;;;4907024;28;88088;-69
2022/12/30 07:45:22;;;;;;;3.40;0.60;;;6.70;99.90;6.50;100515.00;;;;4910229;28;109666;-67
2022/12/30 07:47:48;;;;;;;3.50;1.00;;;6.70;99.90;6.50;100526.00;;;;4903738;28;93174;-67
2022/12/30 07:50:13;;;;;;;1.50;0.83;;;6.60;99.90;6.40;100534.00;;;;4891765;28;117304;-69
2022/12/30 07:52:40;;;;;;;1.10;0.90;;;6.60;99.90;6.50;100539.00;;;;4906348;28;111395;-68
2022/12/30 07:55:06;;;;;;;7.13;1.43;;;7.30;99.90;6.60;100546.00;;;;4910809;28;89114;-66
2022/12/30 07:57:32;;;;;;;1.50;0.73;;;6.70;99.90;6.80;100538.00;;;;4909222;28;97601;-69
2022/12/30 07:59:58;;;;;;;2.10;0.90;;;6.80;99.90;7.00;100532.00;;;;4905090;28;88188;-68
2022/12/30 08:02:23;;;;;;;1.40;0.87;;;7.00;99.90;7.10;100531.00;;;;4890939;28;109209;-68
2022/12/30 08:04:49;;;;;;;1.50;0.90;;;7.20;99.90;7.30;100523.00;;;;4905473;28;108478;-67
2022/12/30 08:07:16;;;;;;;3.07;0.93;;;7.30;99.90;7.40;100529.00;;;;4904137;28;118562;-68
2022/12/30 08:09:42;;;;;;;2.13;1.00;;;7.50;99.90;7.60;100537.00;;;;4906256;28;88202;-67
2022/12/30 08:12:09;;;;;;;1.70;1.30;;;7.70;99.90;7.70;100539.00;;;;4908475;28;111793;-68
2022/12/30 08:14:35;;;;;;;1.53;1.27;;;7.80;99.90;7.90;100549.00;;;;4888002;28;88022;-67
2022/12/30 08:17:00;;;;;;;1.43;0.70;;;7.90;99.90;8.00;100545.00;;;;4902646;28;88976;-67
2022/12/30 08:19:28;;;;;;;3.23;1.47;;;8.10;99.90;8.20;100552.00;;;;4908551;28;117325;-67
2022/12/30 08:21:53;;;;;;;3.40;0.70;;;8.20;99.90;8.30;100551.00;;;;4909718;28;87923;-69
2022/12/30 08:24:19;;;;;;;0.83;0.80;;;8.40;99.90;8.50;100563.00;;;;4907084;28;96378;-68
2022/12/30 08:26:45;;;;;;;2.27;1.27;;;8.50;99.90;8.60;100577.00;;;;4906839;28;88315;-67
2022/12/30 08:29:10;;;;;;;1.20;1.10;;;8.70;99.90;8.70;100571.00;;;;4906508;28;118455;-68
2022/12/30 08:31:36;;;;;;;0.67;0.67;;;8.70;99.90;8.80;100578.00;;;;4908901;28;91389;-68
2022/12/30 08:34:02;;;;;;;2.63;0.83;;;8.80;99.90;8.90;100590.00;;;;4905517;28;109599;-67
2022/12/30 08:36:29;;;;;;;2.83;0.70;;;9.00;99.90;9.00;100587.00;;;;4904779;28;117046;-67
2022/12/30 08:39:00;;;;;;;3.20;0.97;;;9.10;99.90;9.10;100594.00;;;;4904360;28;87881;-69
2022/12/30 08:41:35;;;;;;;2.37;1.27;;;9.20;99.90;9.30;100593.00;;;;4887102;28;88082;-69
2022/12/30 08:44:03;;;;;;;7.97;1.53;;;9.30;99.90;9.30;100590.00;;;;4906347;28;89198;-68
2022/12/30 08:46:32;;;;;;;1.90;0.47;;;9.40;99.90;9.50;100586.00;;;;4904356;28;108498;-68
2022/12/30 08:48:58;;;;;;;2.33;1.17;;;9.60;99.90;9.60;100581.00;;;;4904685;28;102417;-69
2022/12/30 08:51:24;;;;;;;2.03;1.13;;;9.20;99.90;9.80;100591.00;;;;4908742;28;89252;-68
2022/12/30 08:53:50;;;;;;;9.50;1.13;;;9.80;99.90;10.00;100598.00;;;;4880191;28;108596;-68
2022/12/30 08:56:17;;;;;;;2.00;1.00;;;10.00;99.90;10.10;100592.00;;;;4903025;28;116338;-66
2022/12/30 08:58:43;;;;;;;1.17;0.73;;;10.20;99.90;10.20;100593.00;;;;4908465;28;87676;-66
2022/12/30 09:01:18;;;;;;;0.83;0.83;;;10.30;99.90;10.30;100594.00;;;;4874828;28;87172;-66
2022/12/30 09:03:45;;;;;;;2.23;0.93;;;10.40;99.90;10.50;100592.00;;;;4906085;28;87922;-66
2022/12/30 09:06:13;;;;;;;2.23;0.97;;;10.50;99.90;10.50;100604.00;;;;4908587;28;88368;-68
2022/12/30 09:08:39;;;;;;;1.43;0.73;;;10.50;99.90;10.60;100599.00;;;;4905777;28;88850;-66
2022/12/30 09:11:18;;;;;;;3.30;0.80;;;10.70;99.90;10.70;100597.00;;;;4905266;28;98251;-67
2022/12/30 09:13:44;;;;;;;2.83;0.53;;;10.80;99.90;10.80;100593.00;;;;4910741;28;87757;-67
2022/12/30 09:16:15;;;;;;;1.43;0.73;;;10.80;99.90;10.80;100601.00;;;;4918549;28;117560;-70
2022/12/30 09:18:41;;;;;;;3.13;0.90;;;10.90;99.70;10.80;100606.00;;;;4919198;28;94513;-70
2022/12/30 09:21:07;;;;;;;1.63;0.70;;;10.90;99.30;10.90;100603.00;;;;4914054;28;109189;-69
2022/12/30 09:23:34;;;;;;;0.80;0.80;;;10.90;99.30;11.00;100583.00;;;;4906825;28;105160;-69
2022/12/30 09:25:59;;;;;;;2.20;0.70;;;11.20;99.40;11.10;100600.00;;;;4903419;28;87175;-69
2022/12/30 09:28:25;;;;;;;2.37;0.90;;;11.10;98.90;11.00;100601.00;;;;4907715;28;116131;-68
2022/12/30 09:30:51;;;;;;;1.70;1.07;;;11.10;98.10;11.10;100591.00;;;;4908791;28;111203;-68
2022/12/30 09:33:17;;;;;;;1.77;1.07;;;11.60;98.80;11.30;100597.00;;;;4906199;28;88758;-68
2022/12/30 09:35:43;;;;;;;1.90;0.87;;;11.30;98.20;11.40;100595.00;;;;4906197;28;94824;-69
2022/12/30 09:38:08;;;;;;;0.83;0.63;;;11.50;97.10;11.40;100592.00;;;;4887659;28;109856;-68
2022/12/30 09:40:46;;;;;;;0.67;0.63;;;11.40;97.00;11.50;100587.00;;;;4906555;28;110869;-69
2022/12/30 09:43:53;;;;;;;1.60;0.67;;;11.60;96.80;11.60;100580.00;;;;4882131;28;87859;-69
2022/12/30 09:46:27;;;;;;;1.83;0.87;;;12.10;96.70;11.70;100583.00;;;;4887211;28;107068;-70
2022/12/30 09:49:06;;;;;;;1.33;0.70;;;11.80;96.20;11.80;100566.00;;;;4903009;28;109277;-69
2022/12/30 09:51:46;;;;;;;0.43;0.43;;;11.90;95.40;11.90;100563.00;;;;4889384;28;87115;-68
2022/12/30 09:54:23;;;;;;;2.30;0.50;;;12.00;95.10;12.10;100568.00;;;;4894199;28;87989;-66
2022/12/30 09:56:57;;;;;;;0.87;0.43;;;12.10;93.40;12.10;100555.00;;;;4910308;28;88160;-67
2022/12/30 09:59:32;;;;;;;3.73;1.03;;;12.10;93.10;12.10;100559.00;;;;4894750;28;88774;-69
2022/12/30 10:02:32;;;;;;;4.60;0.53;;;12.20;93.10;12.10;100564.00;;;;4894635;28;87875;-69
2022/12/30 10:04:59;;;;;;;5.43;1.07;;;12.20;91.70;12.10;100557.00;;;;4891845;28;89524;-66
2022/12/30 10:08:19;;;;;;;5.00;0.70;;;12.20;92.10;12.20;100562.00;;;;4910027;28;89438;-68
2022/12/30 10:11:00;;;;;;;2.40;0.73;;;12.30;92.20;12.40;100555.00;;;;4897256;28;88156;-71
2022/12/30 10:13:44;;;;;;;3.20;0.50;;;12.40;91.80;12.50;100564.00;;;;4893204;28;93467;-65
2022/12/30 10:16:39;;;;;;;1.60;0.60;;;12.50;91.50;12.60;100557.00;;;;4891610;28;88065;-69
2022/12/30 10:19:23;;;;;;;6.63;0.80;;;13.10;91.30;12.70;100547.00;;;;4882158;28;109592;-70
2022/12/30 10:22:19;;;;;;;1.30;0.80;;;12.70;90.70;12.70;100546.00;;;;4909856;28;93884;-70
2022/12/30 10:25:06;;;;;;;5.83;0.67;;;12.70;90.40;12.70;100543.00;;;;4891975;28;88211;-68
2022/12/30 10:27:48;;;;;;;3.10;0.87;;;12.80;89.80;12.80;100536.00;;;;4907698;28;89902;-68
2022/12/30 10:30:20;;;;;;;5.90;1.03;;;12.80;90.20;12.90;100539.00;;;;4881431;28;90687;-67
2022/12/30 10:32:57;;;;;;;3.20;0.77;;;12.90;90.00;13.00;100540.00;;;;4906944;28;88973;-67
2022/12/30 10:35:31;;;;;;;2.43;0.63;;;13.00;89.30;13.20;100529.00;;;;4884141;28;88174;-69
2022/12/30 10:38:16;;;;;;;2.67;0.57;;;13.10;89.20;13.20;100530.00;;;;4906518;28;101238;-67
2022/12/30 10:41:06;;;;;;;2.63;1.13;;;13.20;88.10;13.30;100533.00;;;;4911118;28;87848;-67
2022/12/30 10:43:55;;;;;;;4.10;0.73;;;13.30;87.00;13.40;100527.00;;;;4909837;28;87931;-69
2022/12/30 10:46:44;;;;;;;0.80;0.60;;;13.40;88.30;13.40;100526.00;;;;4911516;28;86850;-68
2022/12/30 10:49:25;;;;;;;0.53;0.40;;;13.40;85.10;13.40;100525.00;;;;4907317;28;88211;-67
2022/12/30 10:51:50;;;;;;;4.67;0.80;;;13.40;85.70;13.40;100526.00;;;;4894137;28;90269;-68
2022/12/30 10:54:16;;;;;;;1.57;1.10;;;13.40;84.10;13.30;100514.00;;;;4906439;28;88783;-71
2022/12/30 10:56:44;;;;;;;2.00;1.23;;;13.40;85.00;13.20;100514.00;;;;4910990;28;89964;-67
2022/12/30 10:59:15;;;;;;;3.77;1.30;;;13.30;84.30;13.10;100507.00;;;;4907865;28;103754;-67
2022/12/30 11:01:43;;;;;;;1.67;0.87;;;13.20;84.80;13.10;100499.00;;;;4893765;28;87980;-67
2022/12/30 11:04:35;;;;;;;3.60;0.80;;;13.10;85.40;13.00;100502.00;;;;4907940;28;87834;-69
2022/12/30 11:07:05;;;;;;;1.03;0.77;;;13.10;85.70;13.00;100488.00;;;;4907825;28;87851;-67
2022/12/30 11:09:31;;;;;;;4.23;0.97;;;13.00;85.50;13.00;100492.00;;;;4893453;28;88478;-71
2022/12/30 11:14:57;;;;;;;1.33;0.70;;;13.00;86.00;13.10;100488.00;;;;4908659;28;87991;-68
2022/12/30 11:17:28;;;;;;;1.00;0.67;;;13.00;85.20;13.10;100489.00;;;;4895822;28;88158;-69
2022/12/30 11:20:05;;;;;;;1.10;0.60;;;13.10;86.00;13.10;100499.00;;;;4910499;28;88926;-67
2022/12/30 11:22:31;;;;;;;4.00;0.80;;;13.10;85.40;13.20;100497.00;;;;4907172;28;90744;-69
2022/12/30 11:25:23;;;;;;;1.87;0.93;;;13.20;85.30;13.20;100498.00;;;;4906825;28;88512;-69
2022/12/30 11:27:59;;;;;;;1.00;0.83;;;13.20;85.50;13.30;100502.00;;;;4889227;28;88329;-68
2022/12/30 11:30:33;;;;;;;0.53;0.40;;;13.20;85.70;13.40;100502.00;;;;4905261;28;88170;-69
2022/12/30 11:33:16;;;;;;;3.70;1.10;;;13.30;85.20;13.40;100497.00;;;;4884564;28;98887;-67
2022/12/30 11:35:45;;;;;;;1.90;1.03;;;13.30;84.90;13.40;100489.00;;;;4890272;28;87985;-69
2022/12/30 11:38:34;;;;;;;1.13;1.07;;;13.40;83.90;13.40;100494.00;;;;4876593;28;87188;-69
2022/12/30 11:41:23;;;;;;;0.50;0.50;;;13.40;84.00;13.50;100480.00;;;;4907581;28;87893;-71
2022/12/30 11:43:59;;;;;;;1.33;0.93;;;13.50;81.90;13.40;100478.00;;;;4911236;28;90107;-69
2022/12/30 11:46:43;;;;;;;1.13;1.03;;;13.40;80.50;13.30;100478.00;;;;4904889;28;88594;-68
2022/12/30 11:49:34;;;;;;;0.40;0.40;;;13.30;81.30;13.20;100479.00;;;;4882491;28;88053;-68
2022/12/30 11:52:20;;;;;;;6.33;1.27;;;13.30;81.60;13.20;100474.00;;;;4908113;28;88046;-68
2022/12/30 11:54:52;;;;;;;0.50;0.50;;;13.10;81.80;13.20;100468.00;;;;4890225;28;96899;-67
2022/12/30 11:57:32;;;;;;;2.37;1.03;;;13.10;81.60;13.20;100466.00;;;;4906011;28;87921;-68
2022/12/30 12:00:06;;;;;;;1.40;0.73;;;13.20;82.00;13.20;100466.00;;;;4905828;28;88087;-69
2022/12/30 12:02:38;;;;;;;0.97;0.73;;;13.20;81.60;13.30;100465.00;;;;4889897;28;88241;-67
2022/12/30 12:05:22;;;;;;;1.53;0.87;;;13.30;81.40;13.20;100462.00;;;;4905708;28;94981;-67
2022/12/30 12:07:51;;;;;;;0.37;0.37;;;13.20;80.40;13.10;100458.00;;;;4902850;28;116583;-68